createdAt,value
2022-09-13T00:01:28.157Z,6.22
2022-09-13T00:03:56.994Z,7.45
2022-09-13T00:06:25.872Z,6.95
2022-09-13T00:08:55.051Z,7.88
2022-09-13T00:11:25.940Z,7.75
2022-09-13T00:13:55.134Z,7.40
2022-09-13T00:16:28.323Z,7.63
2022-09-13T00:18:57.980Z,6.63
2022-09-13T00:21:27.940Z,7.78
2022-09-13T00:23:56.870Z,7.05
2022-09-13T00:26:28.205Z,6.70
2022-09-13T00:28:58.755Z,6.40
2022-09-13T00:31:29.975Z,7.10
2022-09-13T00:34:00.811Z,5.13
2022-09-13T00:36:30.107Z,5.20
2022-09-13T00:38:58.725Z,4.18
2022-09-13T00:41:27.009Z,4.10
2022-09-13T00:43:57.272Z,3.63
2022-09-13T00:46:35.379Z,4.05
2022-09-13T00:49:13.020Z,3.67
2022-09-13T00:51:46.934Z,3.83
2022-09-13T00:54:18.789Z,4.38
2022-09-13T00:56:50.569Z,5.18
2022-09-13T00:59:25.223Z,6.63
2022-09-13T01:01:57.645Z,6.93
2022-09-13T01:04:30.190Z,7.25
2022-09-13T01:07:02.187Z,6.65
2022-09-13T01:12:08.461Z,6.32
2022-09-13T01:14:38.568Z,6.03
2022-09-13T01:17:09.952Z,6.43
2022-09-13T01:19:38.590Z,6.97
2022-09-13T01:22:45.621Z,5.88
2022-09-13T01:25:39.875Z,6.78
2022-09-13T01:28:23.613Z,6.45
2022-09-13T01:31:01.439Z,6.07
2022-09-13T01:33:46.781Z,6.15
2022-09-13T01:36:47.885Z,6.22
2022-09-13T01:39:22.178Z,6.13
2022-09-13T01:42:04.010Z,5.95
2022-09-13T01:44:47.642Z,5.88
2022-09-13T01:47:25.978Z,5.88
2022-09-13T01:50:05.988Z,5.72
2022-09-13T01:52:44.010Z,5.88
2022-09-13T01:55:19.340Z,5.47
2022-09-13T01:57:52.710Z,5.88
2022-09-13T02:00:21.085Z,5.93
2022-09-13T02:02:55.894Z,5.88
2022-09-13T02:05:33.581Z,5.90
2022-09-13T02:08:05.857Z,5.70
2022-09-13T02:10:36.613Z,6.10
2022-09-13T02:13:07.675Z,5.45
2022-09-13T02:15:41.611Z,5.38
2022-09-13T02:18:17.411Z,4.75
2022-09-13T02:20:48.954Z,5.07
2022-09-13T02:25:52.067Z,4.35
2022-09-13T02:28:25.323Z,5.65
2022-09-13T02:30:56.033Z,5.00
2022-09-13T02:33:30.427Z,4.80
2022-09-13T02:36:02.903Z,4.95
2022-09-13T02:38:34.647Z,4.47
2022-09-13T02:41:12.970Z,4.78
2022-09-13T02:43:46.360Z,4.93
2022-09-13T02:46:26.161Z,5.22
2022-09-13T02:49:02.380Z,5.18
2022-09-13T02:51:41.017Z,4.60
2022-09-13T02:54:22.938Z,5.45
2022-09-13T02:56:55.542Z,4.90
2022-09-13T02:59:25.633Z,4.30
2022-09-13T03:01:58.346Z,5.05
2022-09-13T03:04:28.620Z,6.68
2022-09-13T03:06:58.203Z,5.15
2022-09-13T03:09:27.103Z,3.92
2022-09-13T03:12:16.560Z,4.28
2022-09-13T03:14:52.663Z,4.18
2022-09-13T03:17:40.174Z,4.13
2022-09-13T03:20:13.754Z,4.07
2022-09-13T03:23:12.262Z,3.72
2022-09-13T03:25:58.119Z,3.67
2022-09-13T03:28:35.764Z,4.15
2022-09-13T03:31:09.853Z,3.58
2022-09-13T03:33:48.301Z,3.47
2022-09-13T03:36:23.570Z,3.30
2022-09-13T03:38:58.712Z,3.30
2022-09-13T03:41:32.967Z,2.97
2022-09-13T03:44:05.099Z,2.90
2022-09-13T03:46:38.835Z,3.15
2022-09-13T03:49:10.374Z,3.10
2022-09-13T03:51:41.250Z,2.90
2022-09-13T03:54:16.191Z,3.20
2022-09-13T03:56:44.922Z,3.13
2022-09-13T03:59:13.236Z,2.80
2022-09-13T04:01:42.014Z,2.50
2022-09-13T04:04:11.201Z,2.85
2022-09-13T04:06:41.633Z,2.83
2022-09-13T04:09:10.142Z,3.15
2022-09-13T04:11:40.729Z,2.83
2022-09-13T04:14:09.149Z,2.80
2022-09-13T04:16:38.791Z,2.88
2022-09-13T04:19:07.502Z,2.90
2022-09-13T04:21:36.603Z,2.80
2022-09-13T04:24:06.689Z,2.80
2022-09-13T04:26:36.175Z,3.20
2022-09-13T04:29:05.522Z,3.20
2022-09-13T04:31:34.097Z,3.05
2022-09-13T04:34:03.382Z,3.13
2022-09-13T04:36:32.323Z,3.30
2022-09-13T04:39:03.039Z,3.20
2022-09-13T04:41:34.875Z,3.03
2022-09-13T04:44:04.457Z,3.35
2022-09-13T04:46:33.495Z,3.35
2022-09-13T04:49:02.304Z,3.35
2022-09-13T04:51:31.281Z,3.10
2022-09-13T04:54:00.572Z,3.42
2022-09-13T04:56:29.203Z,3.30
2022-09-13T04:58:59.040Z,3.85
2022-09-13T05:01:28.129Z,3.67
2022-09-13T05:03:57.197Z,3.05
2022-09-13T05:06:26.548Z,3.47
2022-09-13T05:08:56.850Z,3.25
2022-09-13T05:11:26.779Z,3.20
2022-09-13T05:14:00.070Z,3.55
2022-09-13T05:16:32.692Z,3.40
2022-09-13T05:19:01.741Z,3.28
2022-09-13T05:21:31.451Z,3.28
2022-09-13T05:24:00.960Z,4.38
2022-09-13T05:26:31.569Z,6.03
2022-09-13T05:29:02.368Z,4.57
2022-09-13T05:31:34.723Z,3.90
2022-09-13T05:34:06.335Z,4.25
2022-09-13T05:36:37.926Z,4.25
2022-09-13T05:41:56.310Z,4.00
2022-09-13T05:44:25.239Z,3.97
2022-09-13T05:46:55.807Z,3.63
2022-09-13T05:49:24.151Z,3.95
2022-09-13T05:51:52.633Z,3.83
2022-09-13T05:54:21.215Z,3.80
2022-09-13T05:56:52.617Z,3.78
2022-09-13T05:59:21.163Z,3.97
2022-09-13T06:01:50.239Z,4.13
2022-09-13T06:04:20.537Z,4.00
2022-09-13T06:06:48.930Z,4.28
2022-09-13T06:09:18.826Z,4.20
2022-09-13T06:11:47.506Z,4.80
2022-09-13T06:14:16.702Z,4.22
2022-09-13T06:16:45.250Z,4.65
2022-09-13T06:19:13.616Z,4.60
2022-09-13T06:21:43.772Z,4.20
2022-09-13T06:24:12.462Z,4.50
2022-09-13T06:26:40.953Z,4.70
2022-09-13T06:29:13.134Z,4.60
2022-09-13T06:31:44.898Z,5.13
2022-09-13T06:34:16.309Z,4.70
2022-09-13T06:36:46.684Z,3.92
2022-09-13T06:39:16.004Z,4.80
2022-09-13T06:41:44.789Z,5.20
2022-09-13T06:44:13.395Z,4.45
2022-09-13T06:46:42.138Z,4.60
2022-09-13T06:49:12.077Z,4.78
2022-09-13T06:51:40.593Z,4.68
2022-09-13T06:54:10.699Z,4.78
2022-09-13T06:56:40.354Z,5.10
2022-09-13T06:59:11.255Z,4.85
2022-09-13T07:01:41.602Z,5.30
2022-09-13T07:04:12.670Z,4.95
2022-09-13T07:06:42.829Z,4.77
2022-09-13T07:09:17.314Z,4.55
2022-09-13T07:11:47.423Z,5.40
2022-09-13T07:14:17.469Z,4.65
2022-09-13T07:16:47.557Z,4.80
2022-09-13T07:19:18.350Z,5.20
2022-09-13T07:21:47.443Z,4.43
2022-09-13T07:24:18.061Z,4.88
2022-09-13T07:26:47.154Z,4.63
2022-09-13T07:29:19.232Z,4.70
2022-09-13T07:31:50.018Z,4.93
2022-09-13T07:34:20.786Z,4.85
2022-09-13T07:36:50.517Z,4.93
2022-09-13T07:39:22.894Z,5.03
2022-09-13T07:41:52.067Z,4.68
2022-09-13T07:44:21.051Z,4.63
2022-09-13T07:46:49.824Z,4.97
2022-09-13T07:49:19.930Z,4.28
2022-09-13T07:51:51.471Z,4.55
2022-09-13T07:54:21.920Z,4.70
2022-09-13T07:56:51.982Z,4.03
2022-09-13T07:59:21.011Z,4.68
2022-09-13T08:01:52.267Z,4.60
2022-09-13T08:04:25.489Z,3.88
2022-09-13T08:06:54.620Z,4.20
2022-09-13T08:09:24.694Z,3.80
2022-09-13T08:11:53.944Z,4.25
2022-09-13T08:14:24.439Z,3.30
2022-09-13T08:16:56.968Z,3.28
2022-09-13T08:19:25.876Z,3.17
2022-09-13T08:21:55.432Z,3.65
2022-09-13T08:24:26.932Z,3.35
2022-09-13T08:26:57.662Z,3.25
2022-09-13T08:29:27.263Z,3.08
2022-09-13T08:31:56.058Z,2.40
2022-09-13T08:34:27.636Z,2.40
2022-09-13T08:36:56.452Z,2.33
2022-09-13T08:39:29.271Z,2.13
2022-09-13T08:42:25.918Z,2.00
2022-09-13T08:44:57.895Z,1.92
2022-09-13T08:47:40.306Z,1.52
2022-09-13T08:50:18.494Z,1.20
2022-09-13T08:52:53.582Z,1.40
2022-09-13T08:55:31.499Z,1.67
2022-09-13T08:58:12.967Z,1.58
2022-09-13T09:00:45.437Z,1.30
2022-09-13T09:03:23.445Z,1.10
2022-09-13T09:05:54.478Z,1.60
2022-09-13T09:08:32.370Z,1.30
2022-09-13T09:11:09.240Z,1.70
2022-09-13T09:13:43.061Z,1.48
2022-09-13T09:16:26.833Z,1.40
2022-09-13T09:19:00.235Z,1.30
2022-09-13T09:21:29.151Z,1.27
2022-09-13T09:23:59.498Z,1.55
2022-09-13T09:26:32.503Z,1.70
2022-09-13T09:29:03.325Z,1.30
2022-09-13T09:31:41.226Z,1.30
2022-09-13T09:34:19.355Z,1.10
2022-09-13T09:36:56.037Z,1.70
2022-09-13T09:39:29.948Z,1.45
2022-09-13T09:42:04.487Z,1.35
2022-09-13T09:44:34.721Z,1.42
2022-09-13T09:47:12.113Z,1.33
2022-09-13T09:50:04.449Z,1.40
2022-09-13T09:52:40.204Z,1.58
2022-09-13T09:55:18.303Z,1.60
2022-09-13T09:57:58.005Z,1.52
2022-09-13T10:00:31.492Z,1.95
2022-09-13T10:03:03.551Z,1.65
2022-09-13T10:05:33.605Z,1.60
2022-09-13T10:08:04.087Z,1.40
2022-09-13T10:10:41.767Z,1.27
2022-09-13T10:13:17.558Z,1.30
2022-09-13T10:15:55.482Z,1.55
2022-09-13T10:18:43.354Z,1.30
2022-09-13T10:21:24.138Z,1.65
2022-09-13T10:23:53.543Z,1.58
2022-09-13T10:26:25.750Z,1.38
2022-09-13T10:29:02.290Z,1.30
2022-09-13T10:31:36.717Z,1.40
2022-09-13T10:34:08.539Z,1.40
2022-09-13T10:36:52.896Z,1.75
2022-09-13T10:39:23.816Z,1.75
2022-09-13T10:41:55.863Z,1.80
2022-09-13T10:44:31.346Z,1.40
2022-09-13T10:47:03.213Z,1.40
2022-09-13T10:49:48.655Z,1.67
2022-09-13T10:52:32.915Z,1.80
2022-09-13T10:55:44.033Z,1.52
2022-09-13T10:58:21.208Z,1.55
2022-09-13T11:01:40.774Z,1.88
2022-09-13T11:04:35.295Z,1.60
2022-09-13T11:07:14.434Z,1.45
2022-09-13T11:09:49.145Z,1.20
2022-09-13T11:12:26.131Z,1.70
2022-09-13T11:15:06.526Z,1.50
2022-09-13T11:17:57.347Z,1.80
2022-09-13T11:20:40.153Z,1.77
2022-09-13T11:23:41.824Z,2.10
2022-09-13T11:26:26.930Z,1.60
2022-09-13T11:29:04.939Z,1.40
2022-09-13T11:31:45.014Z,1.83
2022-09-13T11:34:33.458Z,1.65
2022-09-13T11:37:15.133Z,1.65
2022-09-13T11:39:51.546Z,1.60
2022-09-13T11:42:35.899Z,1.70
2022-09-13T11:45:21.917Z,1.90
2022-09-13T11:48:08.026Z,1.58
2022-09-13T11:50:48.195Z,1.50
2022-09-13T11:53:38.496Z,1.70
2022-09-13T11:56:12.498Z,1.60
2022-09-13T11:58:48.831Z,1.70
2022-09-13T12:01:24.442Z,1.80
2022-09-13T12:04:01.114Z,1.75
2022-09-13T12:06:35.422Z,1.73
2022-09-13T12:09:08.833Z,1.98
2022-09-13T12:11:40.379Z,2.05
2022-09-13T12:14:15.782Z,2.20
2022-09-13T12:16:48.902Z,2.35
2022-09-13T12:19:22.433Z,2.05
2022-09-13T12:21:54.186Z,1.67
2022-09-13T12:24:32.031Z,2.20
2022-09-13T12:27:05.672Z,2.13
2022-09-13T12:29:40.003Z,2.10
2022-09-13T12:32:11.962Z,2.30
2022-09-13T12:34:48.763Z,1.90
2022-09-13T12:37:35.426Z,2.00
2022-09-13T12:40:35.317Z,1.88
2022-09-13T12:43:25.695Z,1.60
2022-09-13T12:46:33.595Z,1.85
2022-09-13T12:49:46.210Z,1.88
2022-09-13T12:52:31.941Z,1.35
2022-09-13T12:55:46.113Z,1.88
2022-09-13T12:58:42.567Z,1.45
2022-09-13T13:01:17.118Z,1.63
2022-09-13T13:03:52.884Z,1.60
2022-09-13T13:06:33.642Z,1.73
2022-09-13T13:09:09.004Z,1.90
2022-09-13T13:11:48.311Z,1.98
2022-09-13T13:14:44.190Z,1.80
2022-09-13T13:17:39.610Z,1.45
2022-09-13T13:20:45.192Z,1.80
2022-09-13T13:23:21.940Z,1.52
2022-09-13T13:26:05.801Z,1.70
2022-09-13T13:28:52.932Z,2.00
2022-09-13T13:31:36.652Z,1.90
2022-09-13T13:34:35.305Z,2.08
2022-09-13T13:37:06.194Z,1.63
2022-09-13T13:39:40.346Z,1.52
2022-09-13T13:42:26.429Z,1.90
2022-09-13T13:45:16.329Z,1.48
2022-09-13T13:48:21.028Z,1.35
2022-09-13T13:51:30.065Z,1.48
2022-09-13T13:54:02.945Z,1.42
2022-09-13T13:56:38.401Z,1.80
2022-09-13T13:59:14.963Z,1.45
2022-09-13T14:01:48.854Z,1.75
2022-09-13T14:04:49.101Z,1.92
2022-09-13T14:07:51.088Z,1.50
2022-09-13T14:10:25.681Z,1.33
2022-09-13T14:13:18.885Z,1.80
2022-09-13T14:15:57.779Z,1.50
2022-09-13T14:18:49.111Z,1.63
2022-09-13T14:21:26.518Z,1.50
2022-09-13T14:24:11.277Z,1.77
2022-09-13T14:26:41.206Z,1.48
2022-09-13T14:29:11.545Z,1.42
2022-09-13T14:31:41.548Z,1.27
2022-09-13T14:34:22.006Z,1.50
2022-09-13T14:36:56.075Z,1.50
2022-09-13T14:39:25.040Z,1.50
2022-09-13T14:42:01.684Z,1.50
2022-09-13T14:44:31.537Z,1.77
2022-09-13T14:47:13.653Z,1.77
2022-09-13T14:49:49.287Z,1.93
2022-09-13T14:52:25.634Z,1.27
2022-09-13T14:54:58.119Z,1.67
2022-09-13T14:57:30.651Z,1.77
2022-09-13T15:00:03.518Z,1.50
2022-09-13T15:02:39.112Z,1.40
2022-09-13T15:05:14.513Z,1.52
2022-09-13T15:07:44.489Z,1.70
2022-09-13T15:10:25.601Z,1.15
2022-09-13T15:13:03.837Z,1.45
2022-09-13T15:15:37.877Z,1.67
2022-09-13T15:18:25.286Z,1.95
2022-09-13T15:20:56.546Z,1.50
2022-09-13T15:23:28.406Z,1.77
2022-09-13T15:26:00.331Z,1.48
2022-09-13T15:28:30.327Z,1.40
2022-09-13T15:31:02.365Z,1.55
2022-09-13T15:33:35.711Z,1.50
2022-09-13T15:36:29.106Z,1.58
2022-09-13T15:39:01.064Z,1.67
2022-09-13T15:46:32.030Z,1.77
2022-09-13T15:49:06.107Z,1.92
2022-09-13T15:51:39.049Z,1.70
2022-09-13T15:54:14.141Z,1.70
2022-09-13T15:56:44.896Z,1.65
2022-09-13T15:59:15.770Z,1.50
2022-09-13T16:01:44.779Z,1.77
2022-09-13T16:04:15.071Z,1.70
2022-09-13T16:06:44.395Z,1.85
2022-09-13T16:09:19.720Z,1.65
2022-09-13T16:11:49.897Z,2.15
2022-09-13T16:14:19.787Z,1.90
2022-09-13T16:16:52.456Z,2.00
2022-09-13T16:19:25.495Z,2.30
2022-09-13T16:21:56.154Z,2.10
2022-09-13T16:24:25.018Z,1.85
2022-09-13T16:26:53.840Z,2.50
2022-09-13T16:29:23.217Z,2.30
2022-09-13T16:31:52.680Z,2.58
2022-09-13T16:34:23.423Z,2.35
2022-09-13T16:36:52.292Z,2.85
2022-09-13T16:39:21.560Z,2.50
2022-09-13T16:41:50.093Z,2.67
2022-09-13T16:44:19.009Z,2.70
2022-09-13T16:46:47.952Z,3.00
2022-09-13T16:49:16.711Z,3.30
2022-09-13T16:51:46.719Z,4.22
2022-09-13T16:54:15.258Z,4.95
2022-09-13T16:56:45.241Z,5.03
2022-09-13T16:59:14.531Z,6.78
2022-09-13T17:01:51.733Z,6.72
2022-09-13T17:04:21.127Z,6.40
2022-09-13T17:06:51.621Z,5.53
2022-09-13T17:09:22.776Z,5.35
2022-09-13T17:11:52.864Z,4.53
2022-09-13T17:14:22.711Z,4.03
2022-09-13T17:16:54.739Z,3.60
2022-09-13T17:19:27.163Z,3.33
2022-09-13T17:21:57.758Z,3.75
2022-09-13T17:24:27.300Z,3.65
2022-09-13T17:26:58.052Z,3.55
2022-09-13T17:29:31.096Z,3.25
2022-09-13T17:32:00.947Z,3.30
2022-09-13T17:34:30.857Z,2.80
2022-09-13T17:37:00.945Z,3.45
2022-09-13T17:39:29.435Z,3.42
2022-09-13T17:41:58.224Z,3.30
2022-09-13T17:44:27.384Z,2.78
2022-09-13T17:46:56.119Z,3.25
2022-09-13T17:49:24.730Z,3.90
2022-09-13T17:51:53.033Z,3.55
2022-09-13T17:54:23.360Z,3.83
2022-09-13T17:56:52.433Z,3.90
2022-09-13T17:59:22.915Z,3.30
2022-09-13T18:01:53.639Z,3.65
2022-09-13T18:04:25.028Z,3.67
2022-09-13T18:06:56.253Z,4.22
2022-09-13T18:09:27.280Z,3.88
2022-09-13T18:11:56.584Z,3.80
2022-09-13T18:14:27.857Z,4.15
2022-09-13T18:16:58.181Z,3.47
2022-09-13T18:19:44.921Z,3.97
2022-09-13T18:22:15.229Z,3.95
2022-09-13T18:24:47.197Z,4.07
2022-09-13T18:27:16.691Z,4.28
2022-09-13T18:29:45.781Z,4.93
2022-09-13T18:32:14.396Z,5.45
2022-09-13T18:34:44.381Z,5.03
2022-09-13T18:37:12.933Z,4.80
2022-09-13T18:39:42.844Z,5.57
2022-09-13T18:42:13.344Z,5.45
2022-09-13T18:44:43.379Z,5.00
2022-09-13T18:47:13.251Z,4.70
2022-09-13T18:49:41.791Z,5.40
2022-09-13T18:52:11.254Z,4.85
2022-09-13T18:54:39.748Z,5.35
2022-09-13T18:57:08.556Z,5.13
2022-09-13T18:59:38.839Z,4.50
2022-09-13T19:02:10.647Z,4.90
2022-09-13T19:04:39.275Z,4.60
2022-09-13T19:07:08.551Z,4.50
2022-09-13T19:09:37.436Z,4.63
2022-09-13T19:12:06.466Z,4.90
2022-09-13T19:14:35.438Z,5.13
2022-09-13T19:17:05.540Z,4.43
2022-09-13T19:19:35.626Z,4.65
2022-09-13T19:22:04.251Z,4.95
2022-09-13T19:24:33.886Z,5.30
2022-09-13T19:27:02.752Z,4.95
2022-09-13T19:29:31.797Z,5.60
2022-09-13T19:32:00.950Z,4.30
2022-09-13T19:34:33.264Z,4.45
2022-09-13T19:37:02.535Z,4.88
2022-09-13T19:39:31.541Z,4.82
2022-09-13T19:42:02.000Z,4.93
2022-09-13T19:44:31.253Z,4.40
2022-09-13T19:49:50.862Z,4.50
2022-09-13T19:52:19.550Z,4.85
2022-09-13T19:54:48.287Z,4.45
2022-09-13T19:57:16.862Z,4.65
2022-09-13T19:59:45.612Z,4.65
2022-09-13T20:02:13.997Z,4.90
2022-09-13T20:04:43.104Z,4.90
2022-09-13T20:07:14.504Z,4.88
2022-09-13T20:09:46.958Z,4.65
2022-09-13T20:12:15.937Z,4.65
2022-09-13T20:14:45.090Z,4.82
2022-09-13T20:17:13.556Z,4.47
2022-09-13T20:19:46.433Z,4.05
2022-09-13T20:22:19.845Z,5.40
2022-09-13T20:24:48.870Z,4.95
2022-09-13T20:27:17.267Z,4.38
2022-09-13T20:29:45.602Z,4.93
2022-09-13T20:32:14.521Z,4.72
2022-09-13T20:34:42.931Z,4.70
2022-09-13T20:37:11.666Z,4.72
2022-09-13T20:39:41.559Z,4.35
2022-09-13T20:42:10.127Z,4.15
2022-09-13T20:44:41.114Z,4.80
2022-09-13T20:47:09.986Z,4.70
2022-09-13T20:49:38.473Z,4.38
2022-09-13T20:52:07.007Z,4.47
2022-09-13T20:54:36.658Z,4.95
2022-09-13T20:57:07.348Z,4.15
2022-09-13T20:59:36.058Z,4.25
2022-09-13T21:02:04.613Z,4.63
2022-09-13T21:04:33.177Z,4.60
2022-09-13T21:07:24.413Z,4.05
2022-09-13T21:09:52.864Z,4.38
2022-09-13T21:12:24.567Z,4.10
2022-09-13T21:14:52.815Z,4.17
2022-09-13T21:17:21.383Z,4.65
2022-09-13T21:19:49.553Z,4.43
2022-09-13T21:22:18.078Z,4.43
2022-09-13T21:24:47.563Z,4.80
2022-09-13T21:27:15.958Z,4.45
2022-09-13T21:29:45.678Z,4.45
2022-09-13T21:32:14.616Z,4.32
2022-09-13T21:34:43.570Z,4.32
2022-09-13T21:37:13.045Z,4.50
2022-09-13T21:39:41.730Z,5.05
2022-09-13T21:42:10.538Z,4.57
2022-09-13T21:44:39.955Z,3.80
2022-09-13T21:47:10.498Z,5.03
2022-09-13T21:49:38.988Z,4.50
2022-09-13T21:52:07.998Z,4.35
2022-09-13T21:54:36.777Z,4.38
2022-09-13T21:57:05.485Z,4.38
2022-09-13T21:59:33.935Z,3.90
2022-09-13T22:02:02.440Z,4.13
2022-09-13T22:04:33.206Z,4.10
2022-09-13T22:07:01.454Z,4.72
2022-09-13T22:09:29.689Z,4.30
2022-09-13T22:11:59.241Z,4.22
2022-09-13T22:14:27.531Z,4.32
2022-09-13T22:16:56.081Z,4.32
2022-09-13T22:19:27.004Z,4.47
2022-09-13T22:21:59.196Z,4.15
2022-09-13T22:24:29.500Z,3.70
2022-09-13T22:26:59.344Z,4.50
2022-09-13T22:29:28.738Z,4.28
2022-09-13T22:31:57.737Z,4.25
2022-09-13T22:34:31.059Z,4.20
2022-09-13T22:37:01.337Z,4.22
2022-09-13T22:39:30.539Z,4.17
2022-09-13T22:41:58.924Z,4.32
2022-09-13T22:44:27.715Z,4.25
2022-09-13T22:46:56.306Z,4.18
2022-09-13T22:49:25.309Z,3.95
2022-09-13T22:51:54.103Z,4.38
2022-09-13T22:54:24.665Z,4.03
2022-09-13T22:56:53.128Z,4.32
2022-09-13T22:59:22.583Z,3.90
2022-09-13T23:01:51.647Z,4.18
2022-09-13T23:04:20.282Z,4.45
2022-09-13T23:06:48.901Z,4.30
2022-09-13T23:09:19.544Z,4.32
2022-09-13T23:11:49.762Z,3.90
2022-09-13T23:14:20.581Z,4.05
2022-09-13T23:16:51.358Z,3.97
2022-09-13T23:19:22.615Z,3.70
2022-09-13T23:21:53.390Z,3.97
2022-09-13T23:24:24.370Z,3.70
2022-09-13T23:26:56.009Z,3.90
2022-09-13T23:29:24.873Z,3.63
2022-09-13T23:31:55.181Z,3.78
2022-09-13T23:34:23.805Z,3.83
2022-09-13T23:36:52.599Z,3.67
2022-09-13T23:39:21.865Z,3.70
2022-09-13T23:41:51.117Z,3.90
2022-09-13T23:44:21.144Z,3.88
2022-09-13T23:46:49.546Z,4.18
2022-09-13T23:49:18.475Z,4.97
2022-09-13T23:51:47.325Z,4.07
2022-09-13T23:54:16.345Z,4.18
2022-09-13T23:56:45.599Z,3.80
2022-09-13T23:59:14.646Z,4.18
